sensor_id;sensor_type;location;lat;lon;timestamp;temperature;humidity
5743;DHT22;2896;53.500;10.020;2022-12-18T00:02:08;-7.70;1.00
5743;DHT22;2896;53.500;10.020;2022-12-18T00:04:37;-7.50;1.00
5743;DHT22;2896;53.500;10.020;2022-12-18T00:07:05;-7.50;1.00
5743;DHT22;2896;53.500;10.020;2022-12-18T00:09:32;-7.40;1.00
5743;DHT22;2896;53.500;10.020;2022-12-18T00:11:58;-7.30;29.80
5743;DHT22;2896;53.500;10.020;2022-12-18T00:14:25;-6.60;99.90
5743;DHT22;2896;53.500;10.020;2022-12-18T00:16:51;-7.20;99.90
5743;DHT22;2896;53.500;10.020;2022-12-18T00:19:18;-7.20;1.00
5743;DHT22;2896;53.500;10.020;2022-12-18T00:21:45;-7.00;1.00
5743;DHT22;2896;53.500;10.020;2022-12-18T00:24:13;-7.00;99.90
5743;DHT22;2896;53.500;10.020;2022-12-18T00:26:39;-7.00;99.90
5743;DHT22;2896;53.500;10.020;2022-12-18T00:29:10;-7.00;99.90
5743;DHT22;2896;53.500;10.020;2022-12-18T00:31:39;-7.00;1.00
5743;DHT22;2896;53.500;10.020;2022-12-18T00:34:06;-7.00;1.00
5743;DHT22;2896;53.500;10.020;2022-12-18T00:36:34;-6.90;1.00
5743;DHT22;2896;53.500;10.020;2022-12-18T00:39:03;-7.00;99.90
5743;DHT22;2896;53.500;10.020;2022-12-18T00:41:32;-7.00;99.90
5743;DHT22;2896;53.500;10.020;2022-12-18T00:44:18;-7.10;99.90
5743;DHT22;2896;53.500;10.020;2022-12-18T00:46:47;-7.10;99.90
5743;DHT22;2896;53.500;10.020;2022-12-18T00:49:15;-7.10;99.90
5743;DHT22;2896;53.500;10.020;2022-12-18T00:51:42;-7.10;93.10
5743;DHT22;2896;53.500;10.020;2022-12-18T00:54:10;-7.10;99.60
5743;DHT22;2896;53.500;10.020;2022-12-18T00:56:38;-6.80;99.90
5743;DHT22;2896;53.500;10.020;2022-12-18T00:59:05;-6.90;69.90
5743;DHT22;2896;53.500;10.020;2022-12-18T01:01:32;-7.10;1.00
5743;DHT22;2896;53.500;10.020;2022-12-18T01:04:00;-7.10;1.00
5743;DHT22;2896;53.500;10.020;2022-12-18T01:06:27;-7.20;1.00
5743;DHT22;2896;53.500;10.020;2022-12-18T01:08:54;-7.20;1.00
5743;DHT22;2896;53.500;10.020;2022-12-18T01:11:21;-7.20;1.00
5743;DHT22;2896;53.500;10.020;2022-12-18T01:13:51;-6.90;1.00
5743;DHT22;2896;53.500;10.020;2022-12-18T01:16:18;-7.10;1.00
5743;DHT22;2896;53.500;10.020;2022-12-18T01:18:45;-7.20;1.00
5743;DHT22;2896;53.500;10.020;2022-12-18T01:21:14;-7.10;1.00
5743;DHT22;2896;53.500;10.020;2022-12-18T01:23:41;-7.10;1.00
5743;DHT22;2896;53.500;10.020;2022-12-18T01:26:12;-7.10;1.00
5743;DHT22;2896;53.500;10.020;2022-12-18T01:28:39;-6.70;1.00
5743;DHT22;2896;53.500;10.020;2022-12-18T01:31:16;-7.20;1.00
5743;DHT22;2896;53.500;10.020;2022-12-18T01:33:43;-7.20;1.00
5743;DHT22;2896;53.500;10.020;2022-12-18T01:36:15;-7.30;99.90
5743;DHT22;2896;53.500;10.020;2022-12-18T01:38:42;-7.40;99.90
5743;DHT22;2896;53.500;10.020;2022-12-18T01:41:10;-7.40;99.90
5743;DHT22;2896;53.500;10.020;2022-12-18T01:43:51;-7.40;99.90
5743;DHT22;2896;53.500;10.020;2022-12-18T01:46:22;-7.60;99.90
5743;DHT22;2896;53.500;10.020;2022-12-18T01:48:54;-7.60;99.90
5743;DHT22;2896;53.500;10.020;2022-12-18T01:51:21;-7.50;99.90
5743;DHT22;2896;53.500;10.020;2022-12-18T01:53:48;-7.50;99.90
5743;DHT22;2896;53.500;10.020;2022-12-18T01:56:17;-7.40;99.90
5743;DHT22;2896;53.500;10.020;2022-12-18T01:58:50;-7.50;99.90
5743;DHT22;2896;53.500;10.020;2022-12-18T02:01:22;-7.50;99.90
5743;DHT22;2896;53.500;10.020;2022-12-18T02:03:49;-7.50;99.90
5743;DHT22;2896;53.500;10.020;2022-12-18T02:06:20;-7.50;99.90
5743;DHT22;2896;53.500;10.020;2022-12-18T02:08:58;-7.50;99.90
5743;DHT22;2896;53.500;10.020;2022-12-18T02:11:33;-7.50;99.90
5743;DHT22;2896;53.500;10.020;2022-12-18T02:14:11;-7.70;99.90
5743;DHT22;2896;53.500;10.020;2022-12-18T02:16:46;-7.70;73.60
5743;DHT22;2896;53.500;10.020;2022-12-18T02:19:27;-7.80;35.40
5743;DHT22;2896;53.500;10.020;2022-12-18T02:22:07;-7.90;21.30
5743;DHT22;2896;53.500;10.020;2022-12-18T02:24:41;-7.90;27.40
5743;DHT22;2896;53.500;10.020;2022-12-18T02:27:14;-7.90;27.50
5743;DHT22;2896;53.500;10.020;2022-12-18T02:29:45;-7.90;32.50
5743;DHT22;2896;53.500;10.020;2022-12-18T02:32:16;-7.90;32.30
5743;DHT22;2896;53.500;10.020;2022-12-18T02:34:45;-7.60;34.00
5743;DHT22;2896;53.500;10.020;2022-12-18T02:37:15;-7.90;53.30
5743;DHT22;2896;53.500;10.020;2022-12-18T02:39:45;-7.90;68.10
5743;DHT22;2896;53.500;10.020;2022-12-18T02:42:14;-7.90;89.00
5743;DHT22;2896;53.500;10.020;2022-12-18T02:44:43;-7.80;99.90
5743;DHT22;2896;53.500;10.020;2022-12-18T02:47:11;-7.70;99.90
5743;DHT22;2896;53.500;10.020;2022-12-18T02:49:44;-7.60;99.90
5743;DHT22;2896;53.500;10.020;2022-12-18T02:52:21;-7.60;99.90
5743;DHT22;2896;53.500;10.020;2022-12-18T02:54:57;-7.60;99.90
5743;DHT22;2896;53.500;10.020;2022-12-18T02:57:34;-7.80;99.90
5743;DHT22;2896;53.500;10.020;2022-12-18T03:00:04;-7.90;68.60
5743;DHT22;2896;53.500;10.020;2022-12-18T03:02:37;-7.90;41.20
5743;DHT22;2896;53.500;10.020;2022-12-18T03:05:10;-8.00;34.20
5743;DHT22;2896;53.500;10.020;2022-12-18T03:07:42;-6.70;42.00
5743;DHT22;2896;53.500;10.020;2022-12-18T03:10:13;-7.90;59.20
5743;DHT22;2896;53.500;10.020;2022-12-18T03:12:44;-7.90;51.60
5743;DHT22;2896;53.500;10.020;2022-12-18T03:15:16;-7.90;42.90
5743;DHT22;2896;53.500;10.020;2022-12-18T03:17:50;-7.70;30.40
5743;DHT22;2896;53.500;10.020;2022-12-18T03:20:21;-8.00;22.80
5743;DHT22;2896;53.500;10.020;2022-12-18T03:22:53;-8.00;17.80
5743;DHT22;2896;53.500;10.020;2022-12-18T03:25:21;-8.00;19.90
5743;DHT22;2896;53.500;10.020;2022-12-18T03:27:53;-8.00;22.90
5743;DHT22;2896;53.500;10.020;2022-12-18T03:30:21;-8.10;13.60
5743;DHT22;2896;53.500;10.020;2022-12-18T03:32:52;-8.20;7.60
5743;DHT22;2896;53.500;10.020;2022-12-18T03:35:22;-8.20;11.80
5743;DHT22;2896;53.500;10.020;2022-12-18T03:37:52;-8.20;17.60
5743;DHT22;2896;53.500;10.020;2022-12-18T03:40:20;-8.20;23.00
5743;DHT22;2896;53.500;10.020;2022-12-18T03:42:51;-8.20;25.80
5743;DHT22;2896;53.500;10.020;2022-12-18T03:45:23;-8.20;28.80
5743;DHT22;2896;53.500;10.020;2022-12-18T03:47:59;-8.30;24.80
5743;DHT22;2896;53.500;10.020;2022-12-18T03:50:34;-8.30;26.10
5743;DHT22;2896;53.500;10.020;2022-12-18T03:53:14;-8.30;16.30
5743;DHT22;2896;53.500;10.020;2022-12-18T03:55:43;-8.40;3.40
5743;DHT22;2896;53.500;10.020;2022-12-18T03:58:13;-8.40;5.50
5743;DHT22;2896;53.500;10.020;2022-12-18T04:00:43;-8.50;7.00
5743;DHT22;2896;53.500;10.020;2022-12-18T04:03:11;-8.50;6.70
5743;DHT22;2896;53.500;10.020;2022-12-18T04:05:39;-8.50;8.90
5743;DHT22;2896;53.500;10.020;2022-12-18T04:08:07;-8.50;17.90
5743;DHT22;2896;53.500;10.020;2022-12-18T04:10:34;-8.40;82.50
5743;DHT22;2896;53.500;10.020;2022-12-18T04:13:04;-8.30;93.00
5743;DHT22;2896;53.500;10.020;2022-12-18T04:15:34;-8.40;61.20
5743;DHT22;2896;53.500;10.020;2022-12-18T04:18:01;-8.30;58.40
5743;DHT22;2896;53.500;10.020;2022-12-18T04:20:28;-8.40;55.20
5743;DHT22;2896;53.500;10.020;2022-12-18T04:22:55;-8.50;20.30
5743;DHT22;2896;53.500;10.020;2022-12-18T04:25:22;-8.60;4.30
5743;DHT22;2896;53.500;10.020;2022-12-18T04:27:48;-8.60;1.00
5743;DHT22;2896;53.500;10.020;2022-12-18T04:30:15;-8.70;1.00
5743;DHT22;2896;53.500;10.020;2022-12-18T04:32:43;-8.70;1.00
5743;DHT22;2896;53.500;10.020;2022-12-18T04:35:10;-8.70;1.00
5743;DHT22;2896;53.500;10.020;2022-12-18T04:37:37;-8.60;1.00
5743;DHT22;2896;53.500;10.020;2022-12-18T04:40:05;-8.50;39.30
5743;DHT22;2896;53.500;10.020;2022-12-18T04:42:32;-8.50;24.40
5743;DHT22;2896;53.500;10.020;2022-12-18T04:44:58;-8.50;14.70
5743;DHT22;2896;53.500;10.020;2022-12-18T04:47:25;-8.50;17.50
5743;DHT22;2896;53.500;10.020;2022-12-18T04:49:53;-8.50;19.20
5743;DHT22;2896;53.500;10.020;2022-12-18T04:52:19;-8.50;11.80
5743;DHT22;2896;53.500;10.020;2022-12-18T04:54:46;-8.50;3.90
5743;DHT22;2896;53.500;10.020;2022-12-18T04:57:13;-8.60;1.00
5743;DHT22;2896;53.500;10.020;2022-12-18T04:59:39;-8.60;1.00
5743;DHT22;2896;53.500;10.020;2022-12-18T05:02:06;-8.60;3.00
5743;DHT22;2896;53.500;10.020;2022-12-18T05:04:32;-7.90;44.70
5743;DHT22;2896;53.500;10.020;2022-12-18T05:07:00;-8.40;81.40
5743;DHT22;2896;53.500;10.020;2022-12-18T05:09:27;-8.20;34.50
5743;DHT22;2896;53.500;10.020;2022-12-18T05:11:54;-8.40;18.60
5743;DHT22;2896;53.500;10.020;2022-12-18T05:14:20;-8.40;3.10
5743;DHT22;2896;53.500;10.020;2022-12-18T05:16:47;-8.40;1.00
5743;DHT22;2896;53.500;10.020;2022-12-18T05:19:14;-8.40;1.00
5743;DHT22;2896;53.500;10.020;2022-12-18T05:21:40;-8.50;1.00
5743;DHT22;2896;53.500;10.020;2022-12-18T05:24:08;-8.50;1.00
5743;DHT22;2896;53.500;10.020;2022-12-18T05:26:35;-8.60;1.00
5743;DHT22;2896;53.500;10.020;2022-12-18T05:29:02;-8.60;1.00
5743;DHT22;2896;53.500;10.020;2022-12-18T05:31:28;-8.30;1.00
5743;DHT22;2896;53.500;10.020;2022-12-18T05:33:55;-8.70;1.00
5743;DHT22;2896;53.500;10.020;2022-12-18T05:36:22;-8.70;1.00
5743;DHT22;2896;53.500;10.020;2022-12-18T05:38:48;-8.70;1.00
5743;DHT22;2896;53.500;10.020;2022-12-18T05:41:16;-8.70;1.00
5743;DHT22;2896;53.500;10.020;2022-12-18T05:43:43;-8.70;1.00
5743;DHT22;2896;53.500;10.020;2022-12-18T05:46:13;-8.70;1.00
5743;DHT22;2896;53.500;10.020;2022-12-18T05:48:40;-8.60;1.00
5743;DHT22;2896;53.500;10.020;2022-12-18T05:51:07;-8.70;1.00
5743;DHT22;2896;53.500;10.020;2022-12-18T05:53:35;-8.60;5.70
5743;DHT22;2896;53.500;10.020;2022-12-18T05:56:03;-8.60;2.80
5743;DHT22;2896;53.500;10.020;2022-12-18T05:58:32;-8.60;1.00
5743;DHT22;2896;53.500;10.020;2022-12-18T06:01:07;-8.60;1.00
5743;DHT22;2896;53.500;10.020;2022-12-18T06:03:33;-8.60;1.00
5743;DHT22;2896;53.500;10.020;2022-12-18T06:06:00;-8.60;1.00
5743;DHT22;2896;53.500;10.020;2022-12-18T06:08:27;-8.60;1.00
5743;DHT22;2896;53.500;10.020;2022-12-18T06:10:54;-8.60;1.00
5743;DHT22;2896;53.500;10.020;2022-12-18T06:13:22;-8.60;1.00
5743;DHT22;2896;53.500;10.020;2022-12-18T06:15:50;-8.70;1.00
5743;DHT22;2896;53.500;10.020;2022-12-18T06:18:16;-8.70;1.00
5743;DHT22;2896;53.500;10.020;2022-12-18T06:20:43;-8.80;1.00
5743;DHT22;2896;53.500;10.020;2022-12-18T06:23:10;-8.80;1.00
5743;DHT22;2896;53.500;10.020;2022-12-18T06:25:38;-8.80;1.00
5743;DHT22;2896;53.500;10.020;2022-12-18T06:28:05;-8.70;1.00
5743;DHT22;2896;53.500;10.020;2022-12-18T06:30:31;-8.70;1.00
5743;DHT22;2896;53.500;10.020;2022-12-18T06:32:59;-8.70;1.00
5743;DHT22;2896;53.500;10.020;2022-12-18T06:35:26;-8.70;1.00
5743;DHT22;2896;53.500;10.020;2022-12-18T06:37:53;-8.70;1.00
5743;DHT22;2896;53.500;10.020;2022-12-18T06:40:19;-8.80;1.00
5743;DHT22;2896;53.500;10.020;2022-12-18T06:42:46;-8.80;1.00
5743;DHT22;2896;53.500;10.020;2022-12-18T06:45:13;-8.90;1.00
5743;DHT22;2896;53.500;10.020;2022-12-18T06:47:42;-8.80;1.00
5743;DHT22;2896;53.500;10.020;2022-12-18T06:50:11;-8.90;1.00
5743;DHT22;2896;53.500;10.020;2022-12-18T06:52:38;-8.90;1.00
5743;DHT22;2896;53.500;10.020;2022-12-18T06:55:06;-8.90;1.00
5743;DHT22;2896;53.500;10.020;2022-12-18T06:57:36;-8.90;1.00
5743;DHT22;2896;53.500;10.020;2022-12-18T07:00:05;-8.80;1.00
5743;DHT22;2896;53.500;10.020;2022-12-18T07:02:32;-8.80;1.00
5743;DHT22;2896;53.500;10.020;2022-12-18T07:04:59;-8.80;1.00
5743;DHT22;2896;53.500;10.020;2022-12-18T07:07:27;-8.80;1.00
5743;DHT22;2896;53.500;10.020;2022-12-18T07:09:54;-8.90;1.00
5743;DHT22;2896;53.500;10.020;2022-12-18T07:12:21;-8.90;1.00
5743;DHT22;2896;53.500;10.020;2022-12-18T07:14:48;-9.00;1.00
5743;DHT22;2896;53.500;10.020;2022-12-18T07:17:14;-9.00;1.00
5743;DHT22;2896;53.500;10.020;2022-12-18T07:19:41;-8.90;1.00
5743;DHT22;2896;53.500;10.020;2022-12-18T07:22:08;-8.90;1.00
5743;DHT22;2896;53.500;10.020;2022-12-18T07:24:36;-8.90;1.00
5743;DHT22;2896;53.500;10.020;2022-12-18T07:27:02;-8.90;1.00
5743;DHT22;2896;53.500;10.020;2022-12-18T07:29:29;-8.80;1.00
5743;DHT22;2896;53.500;10.020;2022-12-18T07:31:56;-8.80;1.00
5743;DHT22;2896;53.500;10.020;2022-12-18T07:34:22;-8.80;1.00
5743;DHT22;2896;53.500;10.020;2022-12-18T07:36:49;-8.70;1.00
5743;DHT22;2896;53.500;10.020;2022-12-18T07:39:16;-8.60;1.00
5743;DHT22;2896;53.500;10.020;2022-12-18T07:41:44;-8.50;1.00
5743;DHT22;2896;53.500;10.020;2022-12-18T07:44:31;-8.60;1.00
5743;DHT22;2896;53.500;10.020;2022-12-18T07:46:57;-8.60;1.00
5743;DHT22;2896;53.500;10.020;2022-12-18T07:49:24;-8.60;1.00
5743;DHT22;2896;53.500;10.020;2022-12-18T07:51:50;-8.60;1.00
5743;DHT22;2896;53.500;10.020;2022-12-18T07:54:17;-8.70;1.00
5743;DHT22;2896;53.500;10.020;2022-12-18T07:56:45;-8.50;1.00
5743;DHT22;2896;53.500;10.020;2022-12-18T07:59:12;-8.50;1.00
5743;DHT22;2896;53.500;10.020;2022-12-18T08:01:39;-8.50;1.00
5743;DHT22;2896;53.500;10.020;2022-12-18T08:04:05;-8.50;1.00
5743;DHT22;2896;53.500;10.020;2022-12-18T08:06:32;-8.30;1.00
5743;DHT22;2896;53.500;10.020;2022-12-18T08:08:59;-7.90;1.00
5743;DHT22;2896;53.500;10.020;2022-12-18T08:11:28;-8.10;1.00
5743;DHT22;2896;53.500;10.020;2022-12-18T08:13:56;-8.10;1.00
5743;DHT22;2896;53.500;10.020;2022-12-18T08:16:23;-7.90;1.00
5743;DHT22;2896;53.500;10.020;2022-12-18T08:18:51;-7.90;1.00
5743;DHT22;2896;53.500;10.020;2022-12-18T08:21:20;-7.80;1.00
5743;DHT22;2896;53.500;10.020;2022-12-18T08:23:48;-7.70;1.00
5743;DHT22;2896;53.500;10.020;2022-12-18T08:26:15;-7.60;1.00
5743;DHT22;2896;53.500;10.020;2022-12-18T08:28:42;-7.50;1.00
5743;DHT22;2896;53.500;10.020;2022-12-18T08:31:11;-7.50;1.00
5743;DHT22;2896;53.500;10.020;2022-12-18T08:33:39;-7.40;1.00
5743;DHT22;2896;53.500;10.020;2022-12-18T08:36:07;-7.30;1.00
5743;DHT22;2896;53.500;10.020;2022-12-18T08:38:34;-7.30;1.00
5743;DHT22;2896;53.500;10.020;2022-12-18T08:41:02;-7.20;1.00
5743;DHT22;2896;53.500;10.020;2022-12-18T08:43:29;-7.00;1.00
5743;DHT22;2896;53.500;10.020;2022-12-18T08:46:15;-6.80;1.00
5743;DHT22;2896;53.500;10.020;2022-12-18T08:48:41;-6.80;1.00
5743;DHT22;2896;53.500;10.020;2022-12-18T08:51:09;-6.60;1.00
5743;DHT22;2896;53.500;10.020;2022-12-18T08:53:36;-6.60;1.00
5743;DHT22;2896;53.500;10.020;2022-12-18T08:56:03;-6.60;1.00
5743;DHT22;2896;53.500;10.020;2022-12-18T08:58:30;-6.50;99.90
5743;DHT22;2896;53.500;10.020;2022-12-18T09:00:59;-6.40;99.90
5743;DHT22;2896;53.500;10.020;2022-12-18T09:03:27;-6.20;99.90
5743;DHT22;2896;53.500;10.020;2022-12-18T09:05:54;-6.10;99.90
5743;DHT22;2896;53.500;10.020;2022-12-18T09:08:21;-6.00;99.90
5743;DHT22;2896;53.500;10.020;2022-12-18T09:10:49;-5.90;99.90
5743;DHT22;2896;53.500;10.020;2022-12-18T09:13:16;-5.90;99.90
5743;DHT22;2896;53.500;10.020;2022-12-18T09:15:45;-5.80;99.90
5743;DHT22;2896;53.500;10.020;2022-12-18T09:18:12;-5.80;99.90
5743;DHT22;2896;53.500;10.020;2022-12-18T09:20:41;-5.70;99.90
5743;DHT22;2896;53.500;10.020;2022-12-18T09:23:08;-5.60;99.90
5743;DHT22;2896;53.500;10.020;2022-12-18T09:25:35;-5.50;99.90
5743;DHT22;2896;53.500;10.020;2022-12-18T09:28:02;-5.40;99.90
5743;DHT22;2896;53.500;10.020;2022-12-18T09:30:29;-5.30;99.90
5743;DHT22;2896;53.500;10.020;2022-12-18T09:32:58;-5.10;99.90
5743;DHT22;2896;53.500;10.020;2022-12-18T09:35:25;-5.00;99.90
5743;DHT22;2896;53.500;10.020;2022-12-18T09:37:54;-4.90;99.90
5743;DHT22;2896;53.500;10.020;2022-12-18T09:40:22;-4.90;99.90
5743;DHT22;2896;53.500;10.020;2022-12-18T09:42:54;-4.60;99.90
5743;DHT22;2896;53.500;10.020;2022-12-18T09:45:22;-4.80;99.90
5743;DHT22;2896;53.500;10.020;2022-12-18T09:47:50;-4.40;99.90
5743;DHT22;2896;53.500;10.020;2022-12-18T09:50:23;-4.60;99.90
5743;DHT22;2896;53.500;10.020;2022-12-18T09:52:54;-4.50;99.90
5743;DHT22;2896;53.500;10.020;2022-12-18T09:55:27;-4.00;99.90
5743;DHT22;2896;53.500;10.020;2022-12-18T09:57:57;-4.30;99.90
5743;DHT22;2896;53.500;10.020;2022-12-18T10:00:25;-4.20;99.90
5743;DHT22;2896;53.500;10.020;2022-12-18T10:02:56;-4.20;99.90
5743;DHT22;2896;53.500;10.020;2022-12-18T10:05:33;-1.40;99.90
5743;DHT22;2896;53.500;10.020;2022-12-18T10:08:07;-3.90;99.90
5743;DHT22;2896;53.500;10.020;2022-12-18T10:10:41;-3.60;99.90
5743;DHT22;2896;53.500;10.020;2022-12-18T10:13:18;-3.70;99.90
5743;DHT22;2896;53.500;10.020;2022-12-18T10:15:54;-3.60;99.90
5743;DHT22;2896;53.500;10.020;2022-12-18T10:18:33;-3.60;99.90
5743;DHT22;2896;53.500;10.020;2022-12-18T10:21:07;-3.60;99.90
5743;DHT22;2896;53.500;10.020;2022-12-18T10:23:42;-3.60;99.90
5743;DHT22;2896;53.500;10.020;2022-12-18T10:26:11;-3.50;99.90
5743;DHT22;2896;53.500;10.020;2022-12-18T10:28:39;-3.40;99.90
5743;DHT22;2896;53.500;10.020;2022-12-18T10:31:06;-3.30;99.90
5743;DHT22;2896;53.500;10.020;2022-12-18T10:33:34;-3.20;99.90
5743;DHT22;2896;53.500;10.020;2022-12-18T10:36:00;-3.20;99.90
5743;DHT22;2896;53.500;10.020;2022-12-18T10:38:29;-3.10;99.90
5743;DHT22;2896;53.500;10.020;2022-12-18T10:41:00;-3.20;99.90
5743;DHT22;2896;53.500;10.020;2022-12-18T10:43:28;-3.10;99.90
5743;DHT22;2896;53.500;10.020;2022-12-18T10:46:14;-3.00;99.90
5743;DHT22;2896;53.500;10.020;2022-12-18T10:48:50;-3.00;99.90
5743;DHT22;2896;53.500;10.020;2022-12-18T10:51:23;-2.80;99.90
5743;DHT22;2896;53.500;10.020;2022-12-18T10:53:54;-2.70;99.90
5743;DHT22;2896;53.500;10.020;2022-12-18T10:56:24;-2.50;99.90
5743;DHT22;2896;53.500;10.020;2022-12-18T10:59:00;-2.50;99.90
5743;DHT22;2896;53.500;10.020;2022-12-18T11:01:28;-2.40;99.90
5743;DHT22;2896;53.500;10.020;2022-12-18T11:04:00;-2.40;99.90
5743;DHT22;2896;53.500;10.020;2022-12-18T11:06:27;-2.30;99.90
5743;DHT22;2896;53.500;10.020;2022-12-18T11:08:59;-2.30;99.90
5743;DHT22;2896;53.500;10.020;2022-12-18T11:11:28;-2.20;99.90
5743;DHT22;2896;53.500;10.020;2022-12-18T11:13:59;-2.00;99.90
5743;DHT22;2896;53.500;10.020;2022-12-18T11:16:28;-2.10;99.90
5743;DHT22;2896;53.500;10.020;2022-12-18T11:19:20;-2.10;99.90
5743;DHT22;2896;53.500;10.020;2022-12-18T11:21:49;-2.00;99.90
5743;DHT22;2896;53.500;10.020;2022-12-18T11:24:22;-1.90;99.90
5743;DHT22;2896;53.500;10.020;2022-12-18T11:26:54;-1.90;99.90
5743;DHT22;2896;53.500;10.020;2022-12-18T11:29:24;-2.10;99.90
5743;DHT22;2896;53.500;10.020;2022-12-18T11:32:21;-2.00;99.90
5743;DHT22;2896;53.500;10.020;2022-12-18T11:34:52;-2.00;99.90
5743;DHT22;2896;53.500;10.020;2022-12-18T11:37:22;-2.10;99.90
5743;DHT22;2896;53.500;10.020;2022-12-18T11:39:52;-2.20;99.90
5743;DHT22;2896;53.500;10.020;2022-12-18T11:42:25;-2.30;99.90
5743;DHT22;2896;53.500;10.020;2022-12-18T11:44:57;-2.40;99.90
5743;DHT22;2896;53.500;10.020;2022-12-18T11:47:29;-2.40;99.90
5743;DHT22;2896;53.500;10.020;2022-12-18T11:50:00;-2.20;99.90
5743;DHT22;2896;53.500;10.020;2022-12-18T11:52:31;-2.10;99.90
5743;DHT22;2896;53.500;10.020;2022-12-18T11:55:04;-1.80;99.90
5743;DHT22;2896;53.500;10.020;2022-12-18T11:57:41;-1.70;99.90
5743;DHT22;2896;53.500;10.020;2022-12-18T12:03:06;-1.80;99.90
5743;DHT22;2896;53.500;10.020;2022-12-18T12:05:44;-1.70;99.90
5743;DHT22;2896;53.500;10.020;2022-12-18T12:08:17;-1.80;99.90
5743;DHT22;2896;53.500;10.020;2022-12-18T12:10:56;-1.80;99.90
5743;DHT22;2896;53.500;10.020;2022-12-18T12:13:36;-1.80;99.90
5743;DHT22;2896;53.500;10.020;2022-12-18T12:16:13;-1.90;99.90
5743;DHT22;2896;53.500;10.020;2022-12-18T12:18:52;-2.00;99.90
5743;DHT22;2896;53.500;10.020;2022-12-18T12:21:26;-1.90;99.90
5743;DHT22;2896;53.500;10.020;2022-12-18T12:24:00;-1.90;99.90
5743;DHT22;2896;53.500;10.020;2022-12-18T12:26:35;-1.90;99.90
5743;DHT22;2896;53.500;10.020;2022-12-18T12:29:20;-1.90;99.90
5743;DHT22;2896;53.500;10.020;2022-12-18T12:32:00;-2.00;99.90
5743;DHT22;2896;53.500;10.020;2022-12-18T12:34:33;-1.80;99.90
5743;DHT22;2896;53.500;10.020;2022-12-18T12:37:10;-1.70;99.90
5743;DHT22;2896;53.500;10.020;2022-12-18T12:39:42;-1.70;99.90
5743;DHT22;2896;53.500;10.020;2022-12-18T12:42:14;-1.70;99.90
5743;DHT22;2896;53.500;10.020;2022-12-18T12:45:03;-1.80;99.90
5743;DHT22;2896;53.500;10.020;2022-12-18T12:47:33;-1.70;99.90
5743;DHT22;2896;53.500;10.020;2022-12-18T12:50:05;-1.60;99.90
5743;DHT22;2896;53.500;10.020;2022-12-18T12:52:36;-1.50;99.90
5743;DHT22;2896;53.500;10.020;2022-12-18T12:55:06;-1.60;99.90
5743;DHT22;2896;53.500;10.020;2022-12-18T12:57:41;-1.60;99.90
5743;DHT22;2896;53.500;10.020;2022-12-18T13:00:15;-1.70;99.90
5743;DHT22;2896;53.500;10.020;2022-12-18T13:02:47;-1.80;99.90
5743;DHT22;2896;53.500;10.020;2022-12-18T13:05:19;-1.80;99.90
5743;DHT22;2896;53.500;10.020;2022-12-18T13:07:52;-1.80;99.90
5743;DHT22;2896;53.500;10.020;2022-12-18T13:10:25;-1.70;99.90
5743;DHT22;2896;53.500;10.020;2022-12-18T13:12:56;-1.70;99.90
5743;DHT22;2896;53.500;10.020;2022-12-18T13:15:32;-1.70;99.90
5743;DHT22;2896;53.500;10.020;2022-12-18T13:18:14;-1.60;99.90
5743;DHT22;2896;53.500;10.020;2022-12-18T13:20:43;-1.70;99.90
5743;DHT22;2896;53.500;10.020;2022-12-18T13:23:29;-1.80;99.90
5743;DHT22;2896;53.500;10.020;2022-12-18T13:25:58;-1.70;99.90
5743;DHT22;2896;53.500;10.020;2022-12-18T13:28:50;-1.80;99.90
5743;DHT22;2896;53.500;10.020;2022-12-18T13:34:20;-1.90;99.90
5743;DHT22;2896;53.500;10.020;2022-12-18T13:36:49;-1.90;99.90
5743;DHT22;2896;53.500;10.020;2022-12-18T13:39:30;-2.10;99.90
5743;DHT22;2896;53.500;10.020;2022-12-18T13:45:37;-2.20;99.90
5743;DHT22;2896;53.500;10.020;2022-12-18T13:48:10;-4.90;99.90
5743;DHT22;2896;53.500;10.020;2022-12-18T13:50:42;-2.20;99.90
5743;DHT22;2896;53.500;10.020;2022-12-18T13:53:18;-2.40;99.90
5743;DHT22;2896;53.500;10.020;2022-12-18T13:55:46;-2.40;99.90
5743;DHT22;2896;53.500;10.020;2022-12-18T13:58:13;-2.40;99.90
5743;DHT22;2896;53.500;10.020;2022-12-18T14:00:42;-2.50;99.90
5743;DHT22;2896;53.500;10.020;2022-12-18T14:03:17;-2.50;99.90
5743;DHT22;2896;53.500;10.020;2022-12-18T14:05:53;-2.60;99.90
5743;DHT22;2896;53.500;10.020;2022-12-18T14:08:20;-2.60;99.90
5743;DHT22;2896;53.500;10.020;2022-12-18T14:10:51;-2.70;99.90
5743;DHT22;2896;53.500;10.020;2022-12-18T14:13:22;-2.70;99.90
5743;DHT22;2896;53.500;10.020;2022-12-18T14:15:50;-2.70;99.90
5743;DHT22;2896;53.500;10.020;2022-12-18T14:18:21;-2.70;99.90
5743;DHT22;2896;53.500;10.020;2022-12-18T14:20:52;-2.70;99.90
5743;DHT22;2896;53.500;10.020;2022-12-18T14:23:28;-2.90;99.90
5743;DHT22;2896;53.500;10.020;2022-12-18T14:25:55;-2.80;99.90
5743;DHT22;2896;53.500;10.020;2022-12-18T14:28:22;-2.80;99.90
5743;DHT22;2896;53.500;10.020;2022-12-18T14:30:49;-2.90;99.90
5743;DHT22;2896;53.500;10.020;2022-12-18T14:33:18;-3.00;99.90
5743;DHT22;2896;53.500;10.020;2022-12-18T14:35:55;-2.90;99.90
5743;DHT22;2896;53.500;10.020;2022-12-18T14:38:28;-2.90;99.90
5743;DHT22;2896;53.500;10.020;2022-12-18T14:40:56;-2.90;99.90
5743;DHT22;2896;53.500;10.020;2022-12-18T14:43:27;-3.10;99.90
5743;DHT22;2896;53.500;10.020;2022-12-18T14:45:55;-3.10;99.90
5743;DHT22;2896;53.500;10.020;2022-12-18T14:48:32;-3.10;99.90
5743;DHT22;2896;53.500;10.020;2022-12-18T14:51:03;-3.20;99.90
5743;DHT22;2896;53.500;10.020;2022-12-18T14:53:36;-3.30;99.90
5743;DHT22;2896;53.500;10.020;2022-12-18T14:56:14;-3.20;99.90
5743;DHT22;2896;53.500;10.020;2022-12-18T14:58:45;-3.30;99.90
5743;DHT22;2896;53.500;10.020;2022-12-18T15:01:19;-3.20;99.90
5743;DHT22;2896;53.500;10.020;2022-12-18T15:03:45;-3.20;99.90
5743;DHT22;2896;53.500;10.020;2022-12-18T15:06:21;-3.30;99.90
5743;DHT22;2896;53.500;10.020;2022-12-18T15:08:50;-3.30;99.90
5743;DHT22;2896;53.500;10.020;2022-12-18T15:11:31;-3.40;99.90
5743;DHT22;2896;53.500;10.020;2022-12-18T15:13:59;-3.50;99.90
5743;DHT22;2896;53.500;10.020;2022-12-18T15:16:26;-5.40;99.90
5743;DHT22;2896;53.500;10.020;2022-12-18T15:18:53;-3.50;99.90
5743;DHT22;2896;53.500;10.020;2022-12-18T15:21:21;-3.60;99.90
5743;DHT22;2896;53.500;10.020;2022-12-18T15:23:49;-3.60;99.90
5743;DHT22;2896;53.500;10.020;2022-12-18T15:26:18;-3.60;99.90
5743;DHT22;2896;53.500;10.020;2022-12-18T15:28:47;-3.60;99.90
5743;DHT22;2896;53.500;10.020;2022-12-18T15:31:24;-3.70;99.90
5743;DHT22;2896;53.500;10.020;2022-12-18T15:34:11;-3.80;99.90
5743;DHT22;2896;53.500;10.020;2022-12-18T15:36:40;-3.70;99.90
5743;DHT22;2896;53.500;10.020;2022-12-18T15:39:11;-3.70;99.90
5743;DHT22;2896;53.500;10.020;2022-12-18T15:41:38;-3.80;99.90
5743;DHT22;2896;53.500;10.020;2022-12-18T15:44:21;-3.80;99.90
5743;DHT22;2896;53.500;10.020;2022-12-18T15:46:47;-3.70;99.90
5743;DHT22;2896;53.500;10.020;2022-12-18T15:49:14;-3.70;99.90
5743;DHT22;2896;53.500;10.020;2022-12-18T15:51:42;-3.80;99.90
5743;DHT22;2896;53.500;10.020;2022-12-18T15:54:12;-3.70;99.90
5743;DHT22;2896;53.500;10.020;2022-12-18T15:56:41;-3.70;99.90
5743;DHT22;2896;53.500;10.020;2022-12-18T15:59:25;-3.70;99.90
5743;DHT22;2896;53.500;10.020;2022-12-18T16:01:52;-3.60;99.90
5743;DHT22;2896;53.500;10.020;2022-12-18T16:04:20;-3.60;99.90
5743;DHT22;2896;53.500;10.020;2022-12-18T16:06:48;-3.60;99.90
5743;DHT22;2896;53.500;10.020;2022-12-18T16:09:17;-3.60;99.90
5743;DHT22;2896;53.500;10.020;2022-12-18T16:11:43;-3.50;99.90
5743;DHT22;2896;53.500;10.020;2022-12-18T16:14:16;-3.50;99.90
5743;DHT22;2896;53.500;10.020;2022-12-18T16:16:43;-3.50;99.90
5743;DHT22;2896;53.500;10.020;2022-12-18T16:19:10;-3.50;99.90
5743;DHT22;2896;53.500;10.020;2022-12-18T16:21:37;-3.60;99.90